Terminal Aerodrome Forecast
Issued by NWS

Home | Current Version | Previous Version | Graphics & Text | Print | Product List | Glossary On
Versions: 1 2 3 4 5 6 7 8 9 10 11 12 13 14 15 16 17 18 19 20 21 22 23 24 25 26
000
FTUS43 KMPX 221723
TAFAXN
TAF
KAXN 221723Z 2218/2318 15013G19KT P6SM BKN040
     FM222100 17017G26KT P6SM SCT120
     FM230200 19012KT P6SM SCT200
     FM230600 23008KT P6SM BKN100 PROB30 2306/2310 -TSRA BKN040CB
     FM231000 33007KT P6SM VCSH SCT020 BKN050=

USA.gov is the U.S. government's official web portal to all federal, state and local government web resources and services.